createdAt,value
2023-03-27T00:43:26.171Z,10.37
2023-03-27T00:58:32.908Z,8.53
2023-03-27T01:13:53.135Z,11.60
2023-03-27T01:29:28.370Z,7.87
2023-03-27T01:45:01.641Z,10.23
2023-03-27T02:00:28.484Z,8.83
2023-03-27T02:15:50.978Z,7.30
2023-03-27T02:31:34.638Z,9.20
2023-03-27T02:46:51.951Z,10.50
2023-03-27T03:01:54.586Z,7.17
2023-03-27T03:16:56.312Z,6.67
2023-03-27T03:31:58.316Z,9.13
2023-03-27T03:47:00.112Z,6.67
2023-03-27T04:02:02.201Z,7.43
2023-03-27T04:17:04.541Z,6.97
2023-03-27T04:32:06.285Z,8.80
2023-03-27T04:47:09.062Z,8.77
2023-03-27T05:02:13.043Z,9.73
2023-03-27T05:17:16.181Z,10.43
2023-03-27T05:32:18.076Z,9.67
2023-03-27T05:47:20.970Z,8.30
2023-03-27T06:02:23.378Z,13.33
2023-03-27T06:17:25.148Z,11.17
2023-03-27T06:32:27.649Z,15.83
2023-03-27T06:47:29.951Z,14.23
2023-03-27T07:02:31.698Z,14.73
2023-03-27T07:17:45.854Z,18.10
2023-03-27T07:32:50.272Z,13.80
2023-03-27T07:47:52.293Z,16.87
2023-03-27T08:03:03.845Z,15.03
2023-03-27T08:18:06.943Z,15.47
2023-03-27T08:33:09.975Z,16.80
2023-03-27T08:48:33.651Z,18.50
2023-03-27T09:03:52.367Z,16.03
2023-03-27T09:19:02.931Z,21.53
2023-03-27T09:34:08.141Z,20.17
2023-03-27T09:49:21.076Z,19.70
2023-03-27T10:04:24.740Z,14.87
2023-03-27T10:19:39.943Z,17.87
2023-03-27T10:34:54.322Z,18.80
2023-03-27T10:50:02.416Z,17.90
2023-03-27T11:05:10.528Z,17.07
2023-03-27T11:20:26.445Z,19.73
2023-03-27T11:35:33.838Z,17.80
2023-03-27T11:50:43.353Z,19.83
2023-03-27T12:06:14.871Z,16.17
2023-03-27T12:21:19.378Z,9.23
2023-03-27T12:36:26.316Z,10.90
2023-03-27T12:51:53.951Z,10.97
2023-03-27T13:07:13.789Z,11.00
2023-03-27T13:22:21.352Z,8.43
2023-03-27T13:37:36.640Z,11.77
2023-03-27T13:53:06.206Z,9.33
2023-03-27T14:08:36.887Z,9.40
2023-03-27T14:23:50.589Z,12.43
2023-03-27T14:38:53.122Z,12.73
2023-03-27T14:54:02.105Z,12.30
2023-03-27T15:09:05.717Z,10.73
2023-03-27T15:24:13.772Z,12.83
2023-03-27T15:39:23.953Z,11.93
2023-03-27T15:54:34.918Z,11.40
2023-03-27T16:09:49.234Z,7.40
2023-03-27T16:24:52.102Z,8.23
2023-03-27T16:39:54.850Z,11.27
2023-03-27T16:54:56.495Z,11.07
2023-03-27T17:09:58.211Z,10.83
2023-03-27T17:25:02.424Z,11.53
2023-03-27T17:40:09.863Z,11.27
2023-03-27T17:55:11.761Z,10.03
2023-03-27T18:10:17.205Z,8.60
2023-03-27T18:25:19.032Z,10.63
2023-03-27T18:40:21.106Z,9.60
2023-03-27T18:55:22.958Z,9.37
2023-03-27T19:10:24.808Z,6.57
2023-03-27T19:25:27.713Z,7.87
2023-03-27T19:40:29.759Z,6.80
2023-03-27T19:55:31.500Z,7.07
2023-03-27T20:10:33.351Z,8.00
2023-03-27T20:25:35.547Z,8.00
2023-03-27T20:40:53.382Z,6.37
2023-03-27T20:56:00.302Z,7.40
2023-03-27T21:11:02.762Z,7.23
2023-03-27T21:26:04.804Z,9.43
2023-03-27T21:41:09.900Z,6.97
2023-03-27T21:56:12.173Z,5.87
2023-03-27T22:11:13.997Z,7.73
2023-03-27T22:26:15.856Z,8.77
2023-03-27T22:41:18.122Z,7.90
2023-03-27T22:56:19.985Z,7.20
2023-03-27T23:11:21.708Z,7.17
2023-03-27T23:26:23.651Z,5.10
2023-03-27T23:41:25.404Z,5.23
2023-03-27T23:56:27.178Z,3.97
